Time;durP1;ratioP1;P1;durP2;ratioP2;P2;SDS_P1;SDS_P2;PMS_P1;PMS_P2;Temp;Humidity;BMP_temperature;BMP_pressure;BME280_temperature;BME280_humidity;BME280_pressure;Samples;Min_cycle;Max_cycle;Signal;HPM_P1;HPM_P2
2021/10/04 00:02:21;;;;;;;13.60;8.30;;;;;;;;;;781226;178;918876;-70
2021/10/04 00:04:47;;;;;;;9.80;6.77;;;;;;;;;;777378;180;919241;-70
2021/10/04 00:07:13;;;;;;;15.30;8.27;;;;;;;;;;776120;177;922652;-71
2021/10/04 00:09:39;;;;;;;11.57;7.53;;;;;;;;;;777601;178;918743;-69
2021/10/04 00:12:06;;;;;;;12.67;7.37;;;;;;;;;;777040;177;919092;-70
2021/10/04 00:14:32;;;;;;;11.57;7.27;;;;;;;;;;770230;179;919213;-70
2021/10/04 00:16:57;;;;;;;10.27;7.00;;;;;;;;;;768356;180;919212;-69
2021/10/04 00:19:23;;;;;;;11.80;8.00;;;;;;;;;;778177;180;920124;-70
2021/10/04 00:21:49;;;;;;;10.90;7.70;;;;;;;;;;765151;181;919065;-70
2021/10/04 00:24:15;;;;;;;10.00;7.80;;;;;;;;;;774856;177;924731;-71
2021/10/04 00:26:41;;;;;;;13.83;8.03;;;;;;;;;;780851;180;918893;-70
2021/10/04 00:29:07;;;;;;;10.03;7.60;;;;;;;;;;774527;178;917903;-70
2021/10/04 00:31:32;;;;;;;9.10;7.23;;;;;;;;;;776119;178;918365;-70
2021/10/04 00:33:58;;;;;;;13.33;7.63;;;;;;;;;;778365;181;917565;-70
2021/10/04 00:36:24;;;;;;;11.70;6.70;;;;;;;;;;770448;178;918637;-70
2021/10/04 00:38:50;;;;;;;10.93;8.03;;;;;;;;;;770403;180;918886;-69
2021/10/04 00:41:16;;;;;;;9.60;6.87;;;;;;;;;;760677;180;919301;-69
2021/10/04 00:43:42;;;;;;;9.50;8.00;;;;;;;;;;773986;180;918387;-70
2021/10/04 00:46:07;;;;;;;9.57;8.47;;;;;;;;;;775646;179;919305;-70
2021/10/04 00:48:33;;;;;;;12.13;8.10;;;;;;;;;;772582;177;918417;-69
2021/10/04 00:50:59;;;;;;;13.13;7.97;;;;;;;;;;774560;179;1743318;-69
2021/10/04 00:53:25;;;;;;;14.90;9.23;;;;;;;;;;772993;181;919066;-70
2021/10/04 00:55:51;;;;;;;10.95;8.20;;;;;;;;;;761114;181;919754;-70
2021/10/04 00:58:17;;;;;;;9.20;7.70;;;;;;;;;;778238;181;917434;-70
2021/10/04 01:00:43;;;;;;;11.30;7.93;;;;;;;;;;773206;177;919188;-70
2021/10/04 01:03:08;;;;;;;13.53;8.30;;;;;;;;;;758193;182;918724;-70
2021/10/04 01:05:34;;;;;;;10.70;8.10;;;;;;;;;;762024;181;919128;-69
2021/10/04 01:08:00;;;;;;;13.52;8.00;;;;;;;;;;767673;182;919047;-71
2021/10/04 01:10:26;;;;;;;12.97;7.67;;;;;;;;;;766933;180;919077;-71
2021/10/04 01:12:52;;;;;;;11.20;7.70;;;;;;;;;;767309;181;918395;-69
2021/10/04 01:15:18;;;;;;;12.30;9.30;;;;;;;;;;774152;179;916453;-70
2021/10/04 01:17:43;;;;;;;12.63;8.30;;;;;;;;;;763540;182;918369;-70
2021/10/04 01:20:10;;;;;;;12.33;7.40;;;;;;;;;;774449;178;918490;-70
2021/10/04 01:22:36;;;;;;;14.43;8.07;;;;;;;;;;779547;177;918746;-69
2021/10/04 01:25:02;;;;;;;12.20;8.10;;;;;;;;;;760656;181;919122;-71
2021/10/04 01:27:27;;;;;;;15.20;7.57;;;;;;;;;;758289;180;919033;-70
2021/10/04 01:29:53;;;;;;;12.53;8.87;;;;;;;;;;775436;178;919283;-69
2021/10/04 01:32:19;;;;;;;9.87;7.57;;;;;;;;;;772363;181;918879;-69
2021/10/04 01:34:45;;;;;;;10.20;7.60;;;;;;;;;;773886;178;920963;-69
2021/10/04 01:37:11;;;;;;;12.53;8.10;;;;;;;;;;761707;181;923150;-70
2021/10/04 01:39:37;;;;;;;15.53;8.57;;;;;;;;;;783275;180;920267;-69
2021/10/04 01:42:02;;;;;;;12.83;8.30;;;;;;;;;;776529;178;919923;-69
2021/10/04 01:44:28;;;;;;;12.30;8.23;;;;;;;;;;775610;178;918936;-69
2021/10/04 01:46:54;;;;;;;14.33;8.23;;;;;;;;;;778915;178;915418;-68
2021/10/04 01:49:20;;;;;;;14.27;8.55;;;;;;;;;;775164;180;920775;-69
2021/10/04 01:51:46;;;;;;;10.40;8.00;;;;;;;;;;775291;180;918410;-69
2021/10/04 01:54:12;;;;;;;11.47;8.80;;;;;;;;;;779645;181;920150;-69
2021/10/04 01:56:37;;;;;;;13.63;7.97;;;;;;;;;;766198;180;919719;-69
2021/10/04 01:59:03;;;;;;;11.87;9.33;;;;;;;;;;767252;180;919309;-69
2021/10/04 02:01:30;;;;;;;13.30;8.70;;;;;;;;;;771493;180;921294;-69
2021/10/04 02:03:56;;;;;;;12.10;9.20;;;;;;;;;;779427;179;917093;-70
2021/10/04 02:06:21;;;;;;;12.00;9.07;;;;;;;;;;774064;178;919085;-69
2021/10/04 02:08:47;;;;;;;13.40;8.60;;;;;;;;;;774866;180;920612;-69
2021/10/04 02:11:13;;;;;;;12.30;8.87;;;;;;;;;;780289;180;946000;-69
2021/10/04 02:13:38;;;;;;;11.55;8.93;;;;;;;;;;777766;178;915689;-69
2021/10/04 02:16:04;;;;;;;11.37;8.30;;;;;;;;;;770472;177;916161;-69
2021/10/04 02:18:31;;;;;;;13.07;8.43;;;;;;;;;;777053;180;915943;-69
2021/10/04 02:20:56;;;;;;;13.70;9.20;;;;;;;;;;766985;179;915446;-69
2021/10/04 02:23:22;;;;;;;12.70;9.30;;;;;;;;;;773938;177;916759;-69
2021/10/04 02:25:48;;;;;;;10.40;8.60;;;;;;;;;;774778;178;916620;-69
2021/10/04 02:28:14;;;;;;;11.53;9.80;;;;;;;;;;779498;180;919365;-69
2021/10/04 02:30:40;;;;;;;17.10;8.93;;;;;;;;;;775717;180;919010;-69
2021/10/04 02:33:05;;;;;;;14.27;8.32;;;;;;;;;;774779;178;918835;-69
2021/10/04 02:35:31;;;;;;;16.00;8.27;;;;;;;;;;773176;181;918262;-69
2021/10/04 02:37:57;;;;;;;13.37;9.43;;;;;;;;;;763753;182;919139;-69
2021/10/04 02:40:23;;;;;;;10.47;8.50;;;;;;;;;;774093;180;1020204;-70
2021/10/04 02:42:49;;;;;;;11.30;8.60;;;;;;;;;;768048;180;918794;-69
2021/10/04 02:45:15;;;;;;;12.90;8.87;;;;;;;;;;771562;181;918969;-69
2021/10/04 02:47:41;;;;;;;28.83;11.32;;;;;;;;;;767162;180;1021283;-69
2021/10/04 02:50:07;;;;;;;28.43;9.13;;;;;;;;;;771890;181;917773;-68
2021/10/04 02:52:33;;;;;;;13.30;8.50;;;;;;;;;;777802;180;918351;-69
2021/10/04 02:54:59;;;;;;;13.67;10.13;;;;;;;;;;764019;181;918867;-69
2021/10/04 02:57:25;;;;;;;14.63;8.57;;;;;;;;;;773785;177;919148;-69
2021/10/04 02:59:51;;;;;;;14.17;8.83;;;;;;;;;;779572;178;919002;-69
2021/10/04 03:02:16;;;;;;;12.40;9.83;;;;;;;;;;773778;178;918823;-68
2021/10/04 03:04:42;;;;;;;18.00;10.00;;;;;;;;;;776066;179;921049;-69
2021/10/04 03:07:08;;;;;;;20.00;9.17;;;;;;;;;;778918;179;918725;-69
2021/10/04 03:09:34;;;;;;;11.67;9.23;;;;;;;;;;775149;180;918204;-68
2021/10/04 03:12:00;;;;;;;12.60;8.77;;;;;;;;;;762252;180;962587;-69
2021/10/04 03:14:26;;;;;;;14.00;7.77;;;;;;;;;;763867;182;918608;-68
2021/10/04 03:16:52;;;;;;;11.70;8.03;;;;;;;;;;768694;181;920443;-68
2021/10/04 03:19:18;;;;;;;14.97;9.97;;;;;;;;;;772049;177;913752;-68
2021/10/04 03:21:44;;;;;;;16.00;9.07;;;;;;;;;;774003;180;915975;-68
2021/10/04 03:24:10;;;;;;;14.97;10.30;;;;;;;;;;765094;182;915677;-68
2021/10/04 03:26:36;;;;;;;13.00;9.03;;;;;;;;;;770522;181;916232;-68
2021/10/04 03:29:02;;;;;;;10.95;8.07;;;;;;;;;;773793;178;918418;-68
2021/10/04 03:31:28;;;;;;;13.30;9.50;;;;;;;;;;782845;179;919081;-68
2021/10/04 03:33:54;;;;;;;14.00;10.00;;;;;;;;;;775638;178;918337;-68
2021/10/04 03:36:20;;;;;;;15.90;9.50;;;;;;;;;;775706;180;919272;-68
2021/10/04 03:38:46;;;;;;;14.03;8.10;;;;;;;;;;779700;178;920078;-68
2021/10/04 03:41:12;;;;;;;11.53;8.17;;;;;;;;;;770743;178;919183;-68
2021/10/04 03:43:37;;;;;;;13.20;8.90;;;;;;;;;;773465;178;904020;-68
2021/10/04 03:46:03;;;;;;;12.33;9.37;;;;;;;;;;768376;180;918438;-68
2021/10/04 03:48:29;;;;;;;13.00;8.73;;;;;;;;;;776398;179;962745;-68
2021/10/04 03:50:56;;;;;;;18.90;8.93;;;;;;;;;;772380;178;918341;-68
2021/10/04 03:53:21;;;;;;;9.90;7.90;;;;;;;;;;774038;180;918987;-68
2021/10/04 03:55:47;;;;;;;8.50;7.18;;;;;;;;;;776851;180;1019736;-68
2021/10/04 03:58:13;;;;;;;10.60;8.23;;;;;;;;;;771941;180;916799;-68
2021/10/04 04:00:39;;;;;;;11.57;8.17;;;;;;;;;;768255;179;919180;-67
2021/10/04 04:03:04;;;;;;;17.83;8.90;;;;;;;;;;774934;179;920377;-68
2021/10/04 04:05:30;;;;;;;16.90;8.93;;;;;;;;;;760850;181;917985;-68
2021/10/04 04:07:56;;;;;;;12.13;8.85;;;;;;;;;;769487;177;921278;-67
2021/10/04 04:10:22;;;;;;;14.27;9.63;;;;;;;;;;777884;180;915534;-68
2021/10/04 04:12:48;;;;;;;12.20;8.07;;;;;;;;;;774266;180;915291;-68
2021/10/04 04:15:14;;;;;;;11.30;8.60;;;;;;;;;;772607;177;915952;-68
2021/10/04 04:17:40;;;;;;;11.17;8.80;;;;;;;;;;777948;178;915836;-67
2021/10/04 04:20:06;;;;;;;16.63;10.20;;;;;;;;;;782526;181;618754;-68
2021/10/04 04:22:32;;;;;;;10.10;7.23;;;;;;;;;;780042;180;627456;-68
2021/10/04 04:24:57;;;;;;;12.20;8.63;;;;;;;;;;780856;179;628516;-68
2021/10/04 04:27:23;;;;;;;12.77;8.10;;;;;;;;;;763400;180;946256;-68
2021/10/04 04:29:49;;;;;;;11.87;8.90;;;;;;;;;;770758;178;921465;-67
2021/10/04 04:32:15;;;;;;;13.90;8.20;;;;;;;;;;772774;181;927122;-67
2021/10/04 04:34:41;;;;;;;12.05;8.55;;;;;;;;;;777101;178;918206;-67
2021/10/04 04:37:07;;;;;;;16.63;9.77;;;;;;;;;;774671;180;916461;-67
2021/10/04 04:39:33;;;;;;;12.37;9.80;;;;;;;;;;774470;180;916942;-68
2021/10/04 04:41:59;;;;;;;13.90;8.43;;;;;;;;;;773114;180;919725;-68
2021/10/04 04:44:25;;;;;;;18.53;9.63;;;;;;;;;;780624;180;919571;-68
2021/10/04 04:46:50;;;;;;;12.48;9.90;;;;;;;;;;775759;178;918840;-67
2021/10/04 04:49:16;;;;;;;14.83;10.10;;;;;;;;;;774430;179;918434;-68
2021/10/04 04:51:42;;;;;;;14.80;9.93;;;;;;;;;;774676;180;915527;-67
2021/10/04 04:54:08;;;;;;;14.20;9.30;;;;;;;;;;770321;177;925726;-68
2021/10/04 04:56:34;;;;;;;10.95;8.20;;;;;;;;;;778305;180;920507;-69
2021/10/04 04:59:00;;;;;;;31.63;8.97;;;;;;;;;;783604;177;636675;-68
2021/10/04 05:01:26;;;;;;;10.07;7.67;;;;;;;;;;774096;177;810033;-67
2021/10/04 05:03:52;;;;;;;15.00;9.07;;;;;;;;;;772088;181;909194;-67
2021/10/04 05:06:17;;;;;;;22.47;11.70;;;;;;;;;;767290;177;911484;-67
2021/10/04 05:08:43;;;;;;;12.40;9.27;;;;;;;;;;780146;180;918915;-67
2021/10/04 05:11:09;;;;;;;15.43;9.50;;;;;;;;;;760622;181;919356;-67
2021/10/04 05:13:35;;;;;;;12.40;8.50;;;;;;;;;;761836;181;943251;-67
2021/10/04 05:16:01;;;;;;;11.97;9.00;;;;;;;;;;783346;177;921900;-67
2021/10/04 05:18:27;;;;;;;14.73;8.17;;;;;;;;;;760739;181;919211;-67
2021/10/04 05:20:52;;;;;;;18.20;9.33;;;;;;;;;;756545;181;919398;-67
2021/10/04 05:23:19;;;;;;;16.17;10.80;;;;;;;;;;780176;180;625705;-69
2021/10/04 05:25:44;;;;;;;12.50;10.47;;;;;;;;;;769573;178;918770;-70
2021/10/04 05:28:10;;;;;;;15.43;10.57;;;;;;;;;;772362;178;917599;-70
2021/10/04 05:30:36;;;;;;;15.40;12.20;;;;;;;;;;760120;184;946934;-70
2021/10/04 05:33:02;;;;;;;27.20;13.17;;;;;;;;;;771005;181;918036;-69
2021/10/04 05:35:28;;;;;;;13.50;10.30;;;;;;;;;;775016;177;919724;-70
2021/10/04 05:37:54;;;;;;;16.07;10.50;;;;;;;;;;774772;181;919454;-71
2021/10/04 05:40:20;;;;;;;13.50;10.50;;;;;;;;;;778970;180;918516;-70
2021/10/04 05:42:45;;;;;;;20.93;12.43;;;;;;;;;;772377;180;918731;-69
2021/10/04 05:45:11;;;;;;;14.80;10.60;;;;;;;;;;779723;180;626746;-70
2021/10/04 05:47:37;;;;;;;16.53;11.77;;;;;;;;;;770917;180;622408;-70
2021/10/04 05:50:03;;;;;;;26.10;12.70;;;;;;;;;;778291;180;626843;-70
2021/10/04 05:52:29;;;;;;;19.77;14.00;;;;;;;;;;759891;183;918811;-71
2021/10/04 05:54:55;;;;;;;26.62;13.52;;;;;;;;;;776406;178;918479;-69
2021/10/04 05:57:21;;;;;;;25.80;16.70;;;;;;;;;;772637;177;918848;-70
2021/10/04 05:59:47;;;;;;;26.63;17.47;;;;;;;;;;768413;178;918591;-70
2021/10/04 06:02:13;;;;;;;20.67;15.83;;;;;;;;;;771083;180;920080;-70
2021/10/04 06:04:39;;;;;;;36.70;16.87;;;;;;;;;;780221;177;1020393;-70
2021/10/04 06:07:05;;;;;;;28.70;16.97;;;;;;;;;;772063;177;919454;-70
2021/10/04 06:09:31;;;;;;;31.40;20.50;;;;;;;;;;761498;178;1020772;-69
2021/10/04 06:11:56;;;;;;;31.03;20.20;;;;;;;;;;779462;178;918864;-70
2021/10/04 06:14:23;;;;;;;33.57;20.20;;;;;;;;;;773679;181;919952;-70
2021/10/04 06:16:48;;;;;;;30.17;19.13;;;;;;;;;;771476;177;919310;-70
2021/10/04 06:19:14;;;;;;;31.30;20.33;;;;;;;;;;779902;178;918463;-70
2021/10/04 06:21:40;;;;;;;34.60;19.40;;;;;;;;;;774813;180;918851;-70
2021/10/04 06:24:06;;;;;;;36.07;23.37;;;;;;;;;;773863;181;918975;-70
2021/10/04 06:26:31;;;;;;;39.53;23.63;;;;;;;;;;775393;180;918463;-70
2021/10/04 06:28:57;;;;;;;41.40;22.67;;;;;;;;;;777159;177;918334;-70
2021/10/04 06:31:23;;;;;;;37.27;22.80;;;;;;;;;;771461;180;919189;-70
2021/10/04 06:33:49;;;;;;;29.40;20.33;;;;;;;;;;757065;183;919675;-70
2021/10/04 06:36:15;;;;;;;33.13;18.73;;;;;;;;;;770935;180;919744;-69
2021/10/04 06:38:41;;;;;;;30.17;20.07;;;;;;;;;;771448;180;918928;-70
2021/10/04 06:41:07;;;;;;;36.28;21.60;;;;;;;;;;773059;180;919448;-68
2021/10/04 06:43:32;;;;;;;35.63;21.87;;;;;;;;;;782329;180;919605;-67
2021/10/04 06:45:58;;;;;;;35.10;20.80;;;;;;;;;;774435;177;919346;-67
2021/10/04 06:48:24;;;;;;;38.88;22.87;;;;;;;;;;773571;178;918890;-68
2021/10/04 06:50:51;;;;;;;39.20;22.93;;;;;;;;;;774725;180;919545;-68
2021/10/04 06:53:16;;;;;;;36.73;24.47;;;;;;;;;;771152;178;918382;-68
2021/10/04 06:55:45;;;;;;;32.93;19.83;;;;;;;;;;762916;181;919425;-68
2021/10/04 06:58:07;;;;;;;29.30;19.33;;;;;;;;;;769124;181;919185;-69
2021/10/04 07:00:33;;;;;;;27.75;20.77;;;;;;;;;;779990;181;918916;-68
2021/10/04 07:03:00;;;;;;;28.97;17.67;;;;;;;;;;770083;179;919133;-69
2021/10/04 07:05:25;;;;;;;20.73;14.10;;;;;;;;;;776014;178;918949;-68
2021/10/04 07:07:55;;;;;;;21.67;15.53;;;;;;;;;;784024;180;636869;-68
2021/10/04 07:10:17;;;;;;;19.47;14.90;;;;;;;;;;776043;180;635546;-69
2021/10/04 07:12:42;;;;;;;17.90;13.20;;;;;;;;;;769608;181;628087;-70
2021/10/04 07:15:09;;;;;;;18.50;13.90;;;;;;;;;;781548;180;616581;-69
2021/10/04 07:17:34;;;;;;;16.47;12.20;;;;;;;;;;774842;180;920251;-68
2021/10/04 07:20:00;;;;;;;14.53;12.40;;;;;;;;;;772564;180;919259;-69
2021/10/04 07:22:26;;;;;;;17.17;13.40;;;;;;;;;;770210;180;632949;-70
2021/10/04 07:24:52;;;;;;;18.13;11.20;;;;;;;;;;782295;177;621861;-69
2021/10/04 07:27:18;;;;;;;17.73;11.00;;;;;;;;;;768774;181;628507;-68
2021/10/04 07:29:44;;;;;;;15.65;9.32;;;;;;;;;;775120;180;1020895;-69
2021/10/04 07:32:10;;;;;;;10.17;9.00;;;;;;;;;;779816;177;925593;-68
2021/10/04 07:34:35;;;;;;;12.83;8.97;;;;;;;;;;773807;178;919586;-69
2021/10/04 07:37:01;;;;;;;12.60;10.10;;;;;;;;;;775407;180;917890;-69
2021/10/04 07:39:27;;;;;;;13.63;9.17;;;;;;;;;;782018;180;919248;-69
2021/10/04 07:41:53;;;;;;;14.20;10.60;;;;;;;;;;775510;178;919617;-69
2021/10/04 07:44:20;;;;;;;11.53;8.50;;;;;;;;;;773973;178;919527;-69
2021/10/04 07:46:45;;;;;;;15.17;8.53;;;;;;;;;;774678;180;919372;-69
2021/10/04 07:49:10;;;;;;;11.70;9.20;;;;;;;;;;781273;180;918533;-69
2021/10/04 07:51:36;;;;;;;15.67;8.83;;;;;;;;;;771898;180;918322;-69
2021/10/04 07:54:02;;;;;;;10.65;8.15;;;;;;;;;;759339;184;919606;-69
2021/10/04 07:56:28;;;;;;;10.63;8.17;;;;;;;;;;778474;178;919308;-70
2021/10/04 07:58:54;;;;;;;14.47;9.20;;;;;;;;;;773960;180;918585;-70
2021/10/04 08:01:20;;;;;;;11.75;8.93;;;;;;;;;;768972;180;920319;-69
2021/10/04 08:03:45;;;;;;;11.20;8.60;;;;;;;;;;779851;180;920802;-68
2021/10/04 08:06:13;;;;;;;11.63;8.47;;;;;;;;;;760475;180;927382;-70
2021/10/04 08:08:37;;;;;;;11.10;7.90;;;;;;;;;;760700;180;918126;-70
2021/10/04 08:11:03;;;;;;;15.33;8.43;;;;;;;;;;770255;180;918254;-69
2021/10/04 08:13:29;;;;;;;11.77;8.07;;;;;;;;;;773673;181;1003465;-70
2021/10/04 08:15:55;;;;;;;17.50;7.77;;;;;;;;;;775449;179;918963;-70
2021/10/04 08:18:21;;;;;;;10.67;8.57;;;;;;;;;;776408;177;914269;-69
2021/10/04 08:20:47;;;;;;;10.93;7.97;;;;;;;;;;779684;178;916719;-70
2021/10/04 08:23:13;;;;;;;15.47;8.80;;;;;;;;;;774494;178;914601;-70
2021/10/04 08:25:38;;;;;;;9.47;7.17;;;;;;;;;;773808;179;920233;-71
2021/10/04 08:28:04;;;;;;;11.30;7.83;;;;;;;;;;781665;177;919821;-71
2021/10/04 08:30:31;;;;;;;10.87;7.80;;;;;;;;;;775701;180;918805;-70
2021/10/04 08:32:56;;;;;;;10.50;6.93;;;;;;;;;;776805;180;915080;-70
2021/10/04 08:35:22;;;;;;;13.23;8.32;;;;;;;;;;776087;179;915056;-69
2021/10/04 08:37:48;;;;;;;14.90;8.60;;;;;;;;;;771604;180;919533;-70
2021/10/04 08:40:17;;;;;;;10.43;7.47;;;;;;;;;;776246;178;1016756;-72
2021/10/04 08:42:42;;;;;;;11.10;8.00;;;;;;;;;;774466;177;919157;-70
2021/10/04 08:45:09;;;;;;;10.83;8.40;;;;;;;;;;778481;179;919160;-70
2021/10/04 08:47:38;;;;;;;12.93;7.70;;;;;;;;;;772683;181;920045;-72
2021/10/04 08:50:00;;;;;;;10.45;8.35;;;;;;;;;;761989;181;918881;-70
2021/10/04 08:52:26;;;;;;;10.90;7.47;;;;;;;;;;777831;181;918932;-69
2021/10/04 08:54:52;;;;;;;10.20;8.20;;;;;;;;;;775494;178;918703;-70
2021/10/04 08:57:18;;;;;;;9.83;8.00;;;;;;;;;;776848;180;918871;-70
2021/10/04 08:59:44;;;;;;;11.23;7.80;;;;;;;;;;774591;179;919017;-69
2021/10/04 09:02:15;;;;;;;11.67;8.20;;;;;;;;;;768795;180;919519;-70
2021/10/04 09:04:41;;;;;;;10.17;7.53;;;;;;;;;;770244;179;916878;-71
2021/10/04 09:07:07;;;;;;;10.13;7.10;;;;;;;;;;771358;179;919596;-69
2021/10/04 09:09:33;;;;;;;10.97;8.53;;;;;;;;;;766952;181;918934;-72
2021/10/04 09:11:59;;;;;;;13.03;7.93;;;;;;;;;;764508;181;919491;-71
2021/10/04 09:14:28;;;;;;;9.70;7.77;;;;;;;;;;770165;180;919811;-70
2021/10/04 09:16:58;;;;;;;13.97;8.33;;;;;;;;;;765118;180;917054;-71
2021/10/04 09:19:32;;;;;;;18.67;8.13;;;;;;;;;;777541;181;919406;-70
2021/10/04 09:22:18;;;;;;;11.03;8.83;;;;;;;;;;779760;180;921768;-73
2021/10/04 09:24:59;;;;;;;9.77;7.17;;;;;;;;;;778130;180;636702;-72
2021/10/04 09:27:25;;;;;;;14.43;7.87;;;;;;;;;;773216;181;918013;-72
2021/10/04 09:29:51;;;;;;;9.80;7.63;;;;;;;;;;768594;179;919755;-73
2021/10/04 09:32:21;;;;;;;11.83;8.00;;;;;;;;;;770901;178;915750;-73
2021/10/04 09:34:47;;;;;;;13.83;8.60;;;;;;;;;;774155;180;919100;-72
2021/10/04 09:37:13;;;;;;;9.90;7.83;;;;;;;;;;770091;180;921424;-73
2021/10/04 09:39:38;;;;;;;11.33;8.63;;;;;;;;;;772194;178;915931;-72
2021/10/04 09:42:07;;;;;;;14.23;8.85;;;;;;;;;;775210;178;914339;-72
2021/10/04 09:44:39;;;;;;;8.97;7.60;;;;;;;;;;775422;177;914886;-72
2021/10/04 09:47:11;;;;;;;9.13;6.75;;;;;;;;;;777536;178;916038;-72
2021/10/04 09:49:44;;;;;;;12.60;7.30;;;;;;;;;;774826;180;919342;-71
2021/10/04 09:52:10;;;;;;;9.90;7.28;;;;;;;;;;768679;181;928669;-73
2021/10/04 09:54:36;;;;;;;12.60;8.53;;;;;;;;;;766412;181;909199;-73
2021/10/04 09:57:02;;;;;;;9.60;7.80;;;;;;;;;;767599;179;918856;-72
2021/10/04 09:59:28;;;;;;;9.63;7.60;;;;;;;;;;765142;180;919235;-73
2021/10/04 10:01:54;;;;;;;9.48;7.60;;;;;;;;;;775064;177;918274;-72
2021/10/04 10:04:20;;;;;;;10.77;7.47;;;;;;;;;;766995;180;919151;-73
2021/10/04 10:06:46;;;;;;;9.70;7.10;;;;;;;;;;766506;180;919551;-71
2021/10/04 10:09:12;;;;;;;9.70;7.90;;;;;;;;;;776475;178;918628;-73
2021/10/04 10:11:40;;;;;;;9.87;8.00;;;;;;;;;;777450;180;919313;-73
2021/10/04 10:14:05;;;;;;;8.90;6.57;;;;;;;;;;771557;177;921937;-72
2021/10/04 10:16:30;;;;;;;9.33;7.50;;;;;;;;;;775393;180;919312;-73
2021/10/04 10:18:56;;;;;;;9.57;6.80;;;;;;;;;;778943;179;923080;-75
2021/10/04 10:21:23;;;;;;;17.63;7.67;;;;;;;;;;774292;180;919173;-72
2021/10/04 10:23:49;;;;;;;9.50;7.33;;;;;;;;;;770196;178;919494;-73
2021/10/04 10:26:26;;;;;;;10.63;6.97;;;;;;;;;;772638;180;917968;-73
2021/10/04 10:28:55;;;;;;;9.33;7.23;;;;;;;;;;777237;180;916934;-73
2021/10/04 10:31:21;;;;;;;9.50;7.50;;;;;;;;;;765493;180;919997;-72
2021/10/04 10:33:48;;;;;;;8.63;7.10;;;;;;;;;;769352;181;915024;-74
2021/10/04 10:36:13;;;;;;;10.48;8.85;;;;;;;;;;761880;178;915195;-72
2021/10/04 10:38:45;;;;;;;14.90;8.60;;;;;;;;;;779209;178;915179;-74
2021/10/04 10:41:13;;;;;;;11.07;7.07;;;;;;;;;;777415;177;915186;-72
2021/10/04 10:43:54;;;;;;;11.07;7.93;;;;;;;;;;766124;180;919360;-73
2021/10/04 10:46:26;;;;;;;10.70;7.50;;;;;;;;;;774091;180;895346;-74
2021/10/04 10:48:52;;;;;;;1296.93;765.50;;;;;;;;;;776359;180;933342;-75
2021/10/04 10:51:18;;;;;;;24.43;18.23;;;;;;;;;;777665;178;940304;-75
2021/10/04 10:53:44;;;;;;;63.83;39.33;;;;;;;;;;773809;181;918479;-75
2021/10/04 10:56:10;;;;;;;459.87;281.33;;;;;;;;;;776393;180;919498;-77
2021/10/04 10:58:36;;;;;;;13.43;8.77;;;;;;;;;;781024;180;918621;-76
2021/10/04 11:01:05;;;;;;;9.33;6.83;;;;;;;;;;774847;178;918770;-75
2021/10/04 11:03:31;;;;;;;13.37;8.77;;;;;;;;;;771290;178;918159;-75
2021/10/04 11:06:00;;;;;;;10.67;8.20;;;;;;;;;;761746;181;918445;-75
2021/10/04 11:08:43;;;;;;;9.90;8.30;;;;;;;;;;771912;181;919330;-74
2021/10/04 11:11:09;;;;;;;9.50;7.30;;;;;;;;;;783003;180;815777;-74
2021/10/04 11:13:38;;;;;;;9.30;7.23;;;;;;;;;;776352;177;921852;-74
2021/10/04 11:16:19;;;;;;;14.07;8.27;;;;;;;;;;776237;181;816897;-74
2021/10/04 11:18:45;;;;;;;9.50;7.20;;;;;;;;;;772085;181;1021053;-75
2021/10/04 11:21:14;;;;;;;10.20;7.83;;;;;;;;;;782638;180;887855;-73
2021/10/04 11:23:41;;;;;;;8.00;7.20;;;;;;;;;;769832;180;918625;-75
2021/10/04 11:26:12;;;;;;;9.07;6.57;;;;;;;;;;775360;180;917019;-73
2021/10/04 11:28:36;;;;;;;10.30;7.20;;;;;;;;;;774200;177;918456;-73
2021/10/04 11:31:02;;;;;;;10.50;7.50;;;;;;;;;;784662;179;917548;-74
2021/10/04 11:33:27;;;;;;;9.27;7.60;;;;;;;;;;776362;180;817664;-74
2021/10/04 11:35:54;;;;;;;10.93;6.60;;;;;;;;;;772403;180;918702;-74
2021/10/04 11:38:20;;;;;;;11.67;7.47;;;;;;;;;;772834;180;817202;-74
2021/10/04 11:40:46;;;;;;;11.27;7.10;;;;;;;;;;778203;178;714025;-73
2021/10/04 11:43:12;;;;;;;8.27;6.80;;;;;;;;;;773352;179;918027;-75
2021/10/04 11:45:37;;;;;;;10.10;6.47;;;;;;;;;;768440;179;624411;-74
2021/10/04 11:48:03;;;;;;;8.90;6.07;;;;;;;;;;773977;181;810243;-75
2021/10/04 11:50:31;;;;;;;10.60;6.90;;;;;;;;;;781070;176;628700;-76
2021/10/04 11:52:57;;;;;;;7.63;6.83;;;;;;;;;;775769;178;824857;-74
2021/10/04 11:55:23;;;;;;;9.80;6.80;;;;;;;;;;776317;179;816848;-74
2021/10/04 11:57:49;;;;;;;13.73;7.10;;;;;;;;;;771168;180;872906;-75
2021/10/04 12:00:16;;;;;;;9.63;6.50;;;;;;;;;;776904;179;815957;-75
2021/10/04 12:02:40;;;;;;;11.20;6.63;;;;;;;;;;767677;183;918679;-75
2021/10/04 12:05:07;;;;;;;10.93;6.70;;;;;;;;;;771277;178;1072882;-76
2021/10/04 12:07:33;;;;;;;8.90;6.90;;;;;;;;;;774008;180;1018871;-73
2021/10/04 12:09:58;;;;;;;9.20;6.50;;;;;;;;;;764914;181;917804;-75
2021/10/04 12:12:30;;;;;;;8.50;6.63;;;;;;;;;;781532;180;817702;-74
2021/10/04 12:14:56;;;;;;;10.70;6.93;;;;;;;;;;774046;180;918183;-76
2021/10/04 12:17:22;;;;;;;10.77;6.97;;;;;;;;;;773236;180;918648;-74
2021/10/04 12:19:48;;;;;;;7.77;6.57;;;;;;;;;;769437;180;919038;-74
2021/10/04 12:22:14;;;;;;;10.50;7.33;;;;;;;;;;774348;177;918767;-75
2021/10/04 12:24:40;;;;;;;12.53;6.47;;;;;;;;;;772593;178;920008;-72
2021/10/04 12:27:10;;;;;;;13.10;7.07;;;;;;;;;;772727;178;918482;-74
2021/10/04 12:29:46;;;;;;;8.50;7.33;;;;;;;;;;777809;179;1021622;-74
2021/10/04 12:32:18;;;;;;;8.53;7.33;;;;;;;;;;779962;177;918497;-74
2021/10/04 12:34:50;;;;;;;10.93;7.40;;;;;;;;;;774960;181;919126;-74
2021/10/04 12:37:16;;;;;;;18.63;6.97;;;;;;;;;;777047;180;917325;-75
2021/10/04 12:39:42;;;;;;;8.23;6.67;;;;;;;;;;772994;180;918964;-76
2021/10/04 12:42:08;;;;;;;8.07;6.87;;;;;;;;;;776774;178;894370;-74
2021/10/04 12:44:35;;;;;;;11.00;6.50;;;;;;;;;;779348;180;814497;-74
2021/10/04 12:47:05;;;;;;;11.17;6.70;;;;;;;;;;776747;178;816290;-73
2021/10/04 12:49:31;;;;;;;8.40;6.60;;;;;;;;;;762530;181;817304;-74
2021/10/04 12:51:58;;;;;;;13.13;6.87;;;;;;;;;;768027;180;631465;-75
2021/10/04 12:54:29;;;;;;;9.40;7.03;;;;;;;;;;778930;179;625891;-76
2021/10/04 12:56:55;;;;;;;9.70;7.10;;;;;;;;;;774710;180;918611;-76
2021/10/04 12:59:20;;;;;;;18.30;7.13;;;;;;;;;;775341;181;918735;-75
2021/10/04 13:01:47;;;;;;;9.37;6.63;;;;;;;;;;770112;179;819217;-74
2021/10/04 13:04:14;;;;;;;10.13;6.40;;;;;;;;;;774640;177;918982;-73
2021/10/04 13:06:40;;;;;;;11.33;6.73;;;;;;;;;;783564;180;815336;-75
2021/10/04 13:09:06;;;;;;;11.27;7.70;;;;;;;;;;773095;177;919471;-74
2021/10/04 13:11:32;;;;;;;10.50;7.03;;;;;;;;;;773694;180;918604;-74
2021/10/04 13:13:58;;;;;;;14.80;7.27;;;;;;;;;;763540;181;918912;-76
2021/10/04 13:16:24;;;;;;;10.63;7.33;;;;;;;;;;780409;180;816844;-73
2021/10/04 13:18:51;;;;;;;9.77;7.00;;;;;;;;;;774342;180;917856;-74
2021/10/04 13:21:17;;;;;;;10.00;5.97;;;;;;;;;;773189;180;918907;-75
2021/10/04 13:23:42;;;;;;;8.27;6.23;;;;;;;;;;777796;177;916358;-73
2021/10/04 13:26:08;;;;;;;9.00;6.43;;;;;;;;;;777011;180;916093;-74
2021/10/04 13:28:36;;;;;;;7.67;6.37;;;;;;;;;;771945;178;899705;-74
2021/10/04 13:31:00;;;;;;;10.40;6.27;;;;;;;;;;779549;180;916000;-73
2021/10/04 13:33:26;;;;;;;9.50;6.87;;;;;;;;;;772725;177;815849;-74
2021/10/04 13:35:52;;;;;;;9.93;6.50;;;;;;;;;;776651;180;824510;-74
2021/10/04 13:38:18;;;;;;;8.70;6.80;;;;;;;;;;773007;180;1014624;-73
2021/10/04 13:40:44;;;;;;;7.97;6.17;;;;;;;;;;780956;178;813286;-73
2021/10/04 13:43:10;;;;;;;11.50;7.50;;;;;;;;;;775249;180;918725;-75
2021/10/04 13:45:35;;;;;;;8.05;6.62;;;;;;;;;;775650;180;920960;-73
2021/10/04 13:48:02;;;;;;;16.13;7.87;;;;;;;;;;767917;180;918665;-74
2021/10/04 13:50:28;;;;;;;9.00;6.80;;;;;;;;;;771020;178;918617;-73
2021/10/04 13:52:54;;;;;;;10.67;7.20;;;;;;;;;;773600;181;919618;-72
2021/10/04 13:55:20;;;;;;;8.00;6.30;;;;;;;;;;779037;180;918252;-73
2021/10/04 13:57:45;;;;;;;7.80;6.30;;;;;;;;;;772630;180;922388;-71
2021/10/04 14:00:11;;;;;;;13.67;6.23;;;;;;;;;;773609;178;919549;-74
2021/10/04 14:02:37;;;;;;;11.75;7.65;;;;;;;;;;762096;180;918540;-75
2021/10/04 14:05:04;;;;;;;10.87;7.20;;;;;;;;;;781361;180;614898;-75
2021/10/04 14:07:29;;;;;;;9.17;6.97;;;;;;;;;;776616;180;627165;-75
2021/10/04 14:09:55;;;;;;;8.50;6.13;;;;;;;;;;774208;178;815481;-73
2021/10/04 14:12:21;;;;;;;8.00;6.93;;;;;;;;;;778947;179;918429;-73